Time;durP1;ratioP1;P1;durP2;ratioP2;P2;SDS_P1;SDS_P2;PMS_P1;PMS_P2;Temp;Humidity;BMP_temperature;BMP_pressure;BME280_temperature;BME280_humidity;BME280_pressure;Samples;Min_cycle;Max_cycle;Signal;HPM_P1;HPM_P2
2022/09/30 00:00:20;;;;;;;5.15;3.42;;;8.10;99.90;;;;;;5058932;28;20052;-60
2022/09/30 00:02:46;;;;;;;3.95;3.55;;;8.10;99.90;;;;;;5054533;28;20053;-60
2022/09/30 00:05:13;;;;;;;4.22;3.50;;;8.00;99.90;;;;;;5063407;28;20047;-60
2022/09/30 00:07:39;;;;;;;5.07;3.83;;;8.00;99.90;;;;;;5064415;28;20049;-60
2022/09/30 00:10:06;;;;;;;5.80;3.65;;;8.00;99.90;;;;;;5063288;28;20063;-60
2022/09/30 00:12:32;;;;;;;5.18;4.45;;;7.90;99.90;;;;;;5060352;28;20088;-61
2022/09/30 00:15:02;;;;;;;4.70;3.97;;;7.90;99.90;;;;;;5064814;28;20036;-61
2022/09/30 00:17:31;;;;;;;5.03;4.47;;;7.80;99.90;;;;;;5056049;28;20044;-61
2022/09/30 00:19:57;;;;;;;4.13;3.72;;;7.80;99.90;;;;;;5058650;28;20049;-60
2022/09/30 00:22:23;;;;;;;5.50;4.03;;;7.80;99.90;;;;;;5052858;28;20147;-61
2022/09/30 00:24:49;;;;;;;4.88;3.63;;;7.70;99.90;;;;;;5072806;28;20055;-61
2022/09/30 00:27:17;;;;;;;14.05;4.45;;;7.70;99.90;;;;;;5061249;28;20048;-61
2022/09/30 00:29:44;;;;;;;18.08;4.25;;;7.70;99.90;;;;;;5065748;28;20487;-60
2022/09/30 00:32:11;;;;;;;104.43;8.30;;;7.60;99.90;;;;;;5054114;28;20045;-60
2022/09/30 00:34:37;;;;;;;31.73;5.57;;;7.60;99.90;;;;;;5060807;28;20055;-60
2022/09/30 00:37:03;;;;;;;51.10;6.05;;;7.50;99.90;;;;;;5061526;28;20542;-61
2022/09/30 00:39:31;;;;;;;12.50;4.18;;;7.50;99.90;;;;;;5063266;28;20044;-60
2022/09/30 00:42:05;;;;;;;68.10;6.45;;;7.50;99.90;;;;;;5055529;28;20064;-60
2022/09/30 00:44:43;;;;;;;9.60;4.72;;;7.40;99.90;;;;;;5058149;28;20647;-61
2022/09/30 00:47:27;;;;;;;21.40;4.40;;;7.40;99.90;;;;;;5054733;28;20468;-60
2022/09/30 00:49:56;;;;;;;51.72;5.32;;;7.40;99.90;;;;;;5052018;28;20052;-61
2022/09/30 00:52:22;;;;;;;44.05;4.43;;;7.30;99.90;;;;;;5067756;28;20044;-60
2022/09/30 00:54:50;;;;;;;32.42;3.83;;;7.30;99.90;;;;;;5058011;28;20044;-60
2022/09/30 00:57:31;;;;;;;25.60;4.38;;;7.30;99.90;;;;;;5066025;28;20052;-60
2022/09/30 00:59:57;;;;;;;20.83;4.47;;;7.30;99.90;;;;;;5048109;28;20505;-59
2022/09/30 01:02:23;;;;;;;84.97;6.97;;;7.30;99.90;;;;;;5057581;28;20044;-60
2022/09/30 01:04:49;;;;;;;50.60;5.50;;;7.30;99.90;;;;;;5073027;28;20052;-60
2022/09/30 01:07:15;;;;;;;43.35;5.95;;;7.20;99.90;;;;;;5063641;28;20056;-60
2022/09/30 01:09:55;;;;;;;119.22;9.35;;;7.20;99.90;;;;;;5052899;28;20123;-60
2022/09/30 01:12:25;;;;;;;136.80;8.38;;;7.30;99.90;;;;;;5062814;28;20049;-61
2022/09/30 01:14:54;;;;;;;93.78;6.20;;;7.20;99.90;;;;;;5047448;28;20059;-60
2022/09/30 01:17:28;;;;;;;41.30;5.07;;;7.20;99.90;;;;;;5054145;28;20127;-60
2022/09/30 01:20:12;;;;;;;;;;;7.20;99.90;;;;;;5059454;28;20139;-60
2022/09/30 01:23:09;;;;;;;8.07;4.30;;;7.10;99.90;;;;;;5052759;28;19925;-60
2022/09/30 01:25:56;;;;;;;7.15;4.82;;;7.10;99.90;;;;;;5057213;28;20403;-60
2022/09/30 01:28:59;;;;;;;5.50;4.38;;;7.10;99.90;;;;;;5053071;28;20053;-60
2022/09/30 01:31:30;;;;;;;42.63;5.03;;;7.10;99.90;;;;;;5059099;28;20068;-60
2022/09/30 01:34:14;;;;;;;9.27;3.65;;;7.00;99.90;;;;;;5052899;28;20562;-60
2022/09/30 01:37:09;;;;;;;3.97;3.58;;;7.00;99.90;;;;;;5057817;28;20084;-60
2022/09/30 01:39:44;;;;;;;26.38;5.97;;;7.00;99.90;;;;;;5053328;28;20427;-60
2022/09/30 01:42:52;;;;;;;6.28;4.30;;;7.00;99.90;;;;;;5050922;28;20092;-60
2022/09/30 01:45:41;;;;;;;6.63;4.63;;;7.00;99.90;;;;;;4951270;28;20055;-60
2022/09/30 01:48:12;;;;;;;5.85;5.35;;;6.90;99.90;;;;;;4951014;28;20059;-60
2022/09/30 01:50:51;;;;;;;7.45;6.53;;;6.90;99.90;;;;;;4961296;28;21046;-60
2022/09/30 01:53:35;;;;;;;12.05;7.25;;;7.00;99.90;;;;;;4964039;28;20055;-60
2022/09/30 01:56:26;;;;;;;7.90;6.63;;;6.90;99.90;;;;;;4958505;28;20063;-60
2022/09/30 01:58:55;;;;;;;7.10;6.40;;;7.00;99.90;;;;;;4956460;28;20093;-60
2022/09/30 02:01:52;;;;;;;6.78;6.07;;;6.90;99.90;;;;;;4951572;28;20043;-60
2022/09/30 02:04:42;;;;;;;15.32;6.68;;;7.00;99.90;;;;;;4959539;28;20047;-60
2022/09/30 02:07:25;;;;;;;18.17;6.45;;;7.00;99.90;;;;;;4910254;29;20068;-60
2022/09/30 02:10:00;;;;;;;10.38;6.00;;;7.00;99.90;;;;;;4903074;29;20071;-60
2022/09/30 02:12:33;;;;;;;9.38;6.43;;;7.00;99.90;;;;;;4905558;29;20060;-61
2022/09/30 02:15:08;;;;;;;10.65;5.80;;;7.00;99.90;;;;;;4904951;29;20536;-60
2022/09/30 02:18:07;;;;;;;21.08;6.25;;;7.00;99.90;;;;;;4910758;29;20075;-60
2022/09/30 02:20:37;;;;;;;7.38;5.28;;;6.90;99.90;;;;;;4905450;29;20080;-60
2022/09/30 02:23:31;;;;;;;6.10;5.40;;;6.90;99.90;;;;;;4970031;28;20055;-61
2022/09/30 02:26:06;;;;;;;5.72;5.22;;;6.90;99.90;;;;;;4973383;28;20607;-61
2022/09/30 02:28:41;;;;;;;5.25;4.75;;;6.90;99.90;;;;;;4982094;28;20046;-60
2022/09/30 02:31:12;;;;;;;33.22;6.13;;;6.90;99.90;;;;;;4987273;28;20070;-60
2022/09/30 02:33:46;;;;;;;5.47;4.72;;;6.80;99.90;;;;;;4964912;28;20079;-60
2022/09/30 02:36:30;;;;;;;5.28;3.85;;;6.70;99.90;;;;;;4982223;28;20057;-61
2022/09/30 02:39:51;;;;;;;14.05;4.47;;;6.70;99.90;;;;;;4987248;28;20065;-60
2022/09/30 02:42:27;;;;;;;6.07;3.90;;;6.60;99.90;;;;;;4875813;29;20444;-60
2022/09/30 02:45:07;;;;;;;10.30;3.97;;;6.50;99.90;;;;;;4908823;29;20087;-60
2022/09/30 02:48:24;;;;;;;9.32;4.85;;;6.50;99.90;;;;;;4924559;29;20164;-60
2022/09/30 02:50:53;;;;;;;13.35;4.40;;;6.40;99.90;;;;;;4886625;29;20083;-60
2022/09/30 02:53:26;;;;;;;28.40;4.05;;;6.40;99.90;;;;;;4892281;29;20512;-60
2022/09/30 02:56:11;;;;;;;25.98;4.57;;;6.40;99.90;;;;;;4875949;29;20052;-60
2022/09/30 02:58:38;;;;;;;25.83;4.00;;;6.50;99.90;;;;;;4895670;29;20700;-60
2022/09/30 03:01:07;;;;;;;27.77;4.10;;;6.50;99.90;;;;;;4895405;29;20060;-60
2022/09/30 03:04:05;;;;;;;20.20;4.40;;;6.40;99.90;;;;;;4901361;29;20091;-60
2022/09/30 03:06:33;;;;;;;27.75;4.13;;;6.50;99.90;;;;;;4892146;29;20491;-60
2022/09/30 03:09:00;;;;;;;43.80;4.97;;;6.40;99.90;;;;;;4898320;29;20060;-60
2022/09/30 03:11:27;;;;;;;36.72;4.53;;;6.30;99.90;;;;;;4879225;29;20073;-60
2022/09/30 03:14:07;;;;;;;36.25;4.70;;;6.30;99.90;;;;;;4880171;29;20149;-60
2022/09/30 03:16:55;;;;;;;34.20;4.55;;;6.30;99.90;;;;;;4895779;29;20174;-60
2022/09/30 03:19:21;;;;;;;27.80;4.63;;;6.30;99.90;;;;;;4952871;28;20066;-60
2022/09/30 03:22:00;;;;;;;10.02;4.15;;;6.30;99.90;;;;;;4976036;28;20141;-60
2022/09/30 03:24:42;;;;;;;11.35;3.85;;;6.20;99.90;;;;;;4956428;28;20069;-59
2022/09/30 03:27:18;;;;;;;18.40;2.17;;;6.20;99.90;;;;;;5036527;28;20064;-60
2022/09/30 03:29:44;;;;;;;8.27;1.80;;;6.10;99.90;;;;;;5043303;28;20044;-59
2022/09/30 03:32:28;;;;;;;13.63;2.40;;;6.00;99.90;;;;;;5040788;28;20116;-59
2022/09/30 03:35:04;;;;;;;17.65;2.33;;;5.90;99.90;;;;;;5041628;28;20080;-60
2022/09/30 03:38:09;;;;;;;2.33;2.13;;;5.80;99.90;;;;;;5044158;28;20148;-60
2022/09/30 03:41:02;;;;;;;6.22;2.40;;;5.80;99.90;;;;;;5033507;28;20053;-60
2022/09/30 03:43:29;;;;;;;;;;;5.90;99.90;;;;;;5044481;28;20063;-60
2022/09/30 03:46:14;;;;;;;19.38;3.20;;;5.90;99.90;;;;;;5045217;28;19924;-60
2022/09/30 03:48:42;;;;;;;25.48;3.38;;;5.90;99.90;;;;;;5041895;28;20465;-60
2022/09/30 03:51:08;;;;;;;7.28;2.53;;;5.80;99.90;;;;;;5044644;28;20415;-59
2022/09/30 03:53:42;;;;;;;5.55;2.60;;;5.80;99.90;;;;;;5051013;28;20044;-60
2022/09/30 03:56:08;;;;;;;10.68;2.90;;;5.70;99.90;;;;;;5046570;28;20135;-59
2022/09/30 03:58:39;;;;;;;3.90;2.50;;;5.70;99.90;;;;;;5045876;28;20522;-60
2022/09/30 04:01:05;;;;;;;16.15;3.60;;;5.70;99.90;;;;;;5017552;28;20049;-59
2022/09/30 04:03:32;;;;;;;34.83;4.68;;;5.70;99.90;;;;;;5036101;28;20037;-61
2022/09/30 04:05:58;;;;;;;8.68;3.58;;;5.70;99.90;;;;;;5020502;28;20049;-60
2022/09/30 04:08:25;;;;;;;12.23;2.83;;;5.70;99.90;;;;;;5038357;28;20044;-60
2022/09/30 04:10:51;;;;;;;17.08;3.30;;;5.70;99.90;;;;;;5033289;28;20096;-60
2022/09/30 04:13:17;;;;;;;13.75;3.30;;;5.70;99.90;;;;;;5045452;28;20155;-60
2022/09/30 04:15:43;;;;;;;15.52;3.40;;;5.70;99.90;;;;;;5045980;28;20198;-59
2022/09/30 04:18:09;;;;;;;11.02;2.88;;;5.60;99.90;;;;;;5040928;28;20135;-60
2022/09/30 04:20:38;;;;;;;6.35;2.80;;;5.60;99.90;;;;;;5045653;28;20053;-59
2022/09/30 04:23:05;;;;;;;2.65;2.45;;;5.60;99.90;;;;;;5045814;28;20499;-60
2022/09/30 04:25:35;;;;;;;2.22;2.03;;;5.50;99.90;;;;;;5046289;28;20135;-60
2022/09/30 04:28:02;;;;;;;2.65;2.45;;;5.50;99.90;;;;;;5028571;28;20393;-59
2022/09/30 04:30:28;;;;;;;2.40;2.20;;;5.50;99.90;;;;;;5045885;28;20060;-60
2022/09/30 04:32:53;;;;;;;41.60;4.38;;;5.40;99.90;;;;;;5037846;28;20048;-60
2022/09/30 04:35:19;;;;;;;40.00;4.70;;;5.40;99.90;;;;;;5020052;28;20059;-59
2022/09/30 04:37:50;;;;;;;28.38;3.42;;;5.40;99.90;;;;;;5047480;28;20052;-60
2022/09/30 04:40:16;;;;;;;30.40;3.58;;;5.40;99.90;;;;;;5022260;28;20140;-61
2022/09/30 04:42:42;;;;;;;12.27;3.30;;;5.30;99.90;;;;;;5059158;28;20060;-60
2022/09/30 04:45:10;;;;;;;3.53;3.22;;;5.40;99.90;;;;;;5062601;28;20047;-60
2022/09/30 04:47:36;;;;;;;3.72;3.22;;;5.30;99.90;;;;;;5052805;28;20048;-59
2022/09/30 04:50:04;;;;;;;22.58;5.80;;;5.40;99.90;;;;;;5067204;28;20411;-60
2022/09/30 04:52:31;;;;;;;28.50;5.63;;;5.40;99.90;;;;;;5057867;28;20127;-59
2022/09/30 04:54:57;;;;;;;39.92;7.45;;;5.40;99.90;;;;;;5058637;28;20091;-61
2022/09/30 04:57:24;;;;;;;54.42;7.28;;;5.40;99.90;;;;;;5064834;28;20117;-60
2022/09/30 04:59:50;;;;;;;114.38;11.30;;;5.40;99.90;;;;;;5064506;28;20055;-60
2022/09/30 05:02:16;;;;;;;92.15;10.57;;;5.50;99.90;;;;;;5068834;28;20109;-60
2022/09/30 05:04:43;;;;;;;10.43;6.78;;;5.50;99.90;;;;;;5054485;28;20051;-60
2022/09/30 05:07:09;;;;;;;18.73;6.30;;;5.50;99.90;;;;;;5065967;28;20500;-60
2022/09/30 05:09:35;;;;;;;13.98;6.13;;;5.50;99.90;;;;;;5057636;28;20087;-60
2022/09/30 05:12:02;;;;;;;8.40;6.90;;;5.50;99.90;;;;;;5064297;28;20064;-60
2022/09/30 05:14:29;;;;;;;31.50;7.07;;;5.50;99.90;;;;;;5058517;28;20049;-60
2022/09/30 05:16:56;;;;;;;18.52;5.53;;;5.50;99.90;;;;;;5072811;28;20197;-62
2022/09/30 05:19:22;;;;;;;6.15;5.38;;;5.50;99.90;;;;;;5065191;28;20041;-60
2022/09/30 05:21:51;;;;;;;6.63;5.72;;;5.50;99.90;;;;;;5069139;28;20115;-60
2022/09/30 05:24:17;;;;;;;8.70;6.22;;;5.50;99.90;;;;;;5057381;28;20139;-60
2022/09/30 05:26:43;;;;;;;8.70;6.55;;;5.50;99.90;;;;;;5064354;28;20083;-60
2022/09/30 05:29:10;;;;;;;13.82;8.32;;;5.40;99.90;;;;;;5073757;28;20554;-60
2022/09/30 05:31:36;;;;;;;7.75;6.97;;;5.40;99.90;;;;;;5041261;28;20123;-59
2022/09/30 05:34:03;;;;;;;17.45;7.97;;;5.50;99.90;;;;;;5061073;28;20048;-60
2022/09/30 05:36:29;;;;;;;10.57;7.78;;;5.50;99.90;;;;;;5060891;28;20053;-60
2022/09/30 05:38:55;;;;;;;9.48;7.70;;;5.50;99.90;;;;;;5052709;28;20064;-60
2022/09/30 05:41:21;;;;;;;142.70;11.25;;;5.50;99.90;;;;;;5059194;28;20518;-60
2022/09/30 05:43:48;;;;;;;12.70;6.28;;;5.50;99.90;;;;;;5056539;28;20065;-59
2022/09/30 05:46:16;;;;;;;21.02;8.50;;;5.50;99.90;;;;;;5052453;28;20071;-60
2022/09/30 05:48:43;;;;;;;15.10;8.00;;;5.60;99.90;;;;;;5056680;28;20040;-60
2022/09/30 05:51:09;;;;;;;46.10;10.13;;;5.60;99.90;;;;;;5061953;28;20048;-60
2022/09/30 05:53:38;;;;;;;12.73;8.82;;;5.60;99.90;;;;;;5062714;28;20076;-59
2022/09/30 05:56:05;;;;;;;9.40;7.90;;;5.60;99.90;;;;;;5061138;28;20055;-60
2022/09/30 05:58:31;;;;;;;19.77;8.35;;;5.60;99.90;;;;;;5056733;28;20728;-59
2022/09/30 06:01:07;;;;;;;12.75;9.13;;;5.70;99.90;;;;;;5053147;28;20055;-62
2022/09/30 06:03:34;;;;;;;16.00;10.15;;;5.80;99.90;;;;;;5055039;28;20059;-60
2022/09/30 06:06:01;;;;;;;14.82;9.45;;;5.90;99.90;;;;;;5051309;28;20103;-60
2022/09/30 06:08:34;;;;;;;48.80;10.57;;;6.00;99.90;;;;;;5062339;28;20048;-59
2022/09/30 06:11:00;;;;;;;32.67;9.40;;;6.10;99.90;;;;;;5051154;28;20099;-60
2022/09/30 06:13:27;;;;;;;22.38;7.65;;;6.30;99.90;;;;;;5061563;28;20061;-61
2022/09/30 06:16:01;;;;;;;8.07;7.28;;;6.50;99.90;;;;;;5052823;28;20575;-60
2022/09/30 06:18:27;;;;;;;;;;;6.80;99.90;;;;;;5038973;28;20064;-58
2022/09/30 06:20:58;;;;;;;11.57;7.55;;;7.20;99.90;;;;;;5052772;28;20299;-59
2022/09/30 06:23:28;;;;;;;13.15;7.07;;;7.50;99.90;;;;;;5056893;28;20048;-59
2022/09/30 06:25:55;;;;;;;11.35;6.90;;;7.70;99.90;;;;;;5066530;28;20495;-59
2022/09/30 06:28:22;;;;;;;9.45;6.30;;;7.80;99.90;;;;;;5056778;28;20060;-61
2022/09/30 06:30:52;;;;;;;36.92;6.30;;;7.80;99.90;;;;;;5071114;28;20045;-62
2022/09/30 06:33:20;;;;;;;38.35;7.47;;;7.80;99.90;;;;;;5068663;28;20048;-61
2022/09/30 06:35:47;;;;;;;80.85;7.60;;;7.80;99.90;;;;;;5040999;28;20046;-59
2022/09/30 06:38:17;;;;;;;96.88;8.25;;;7.70;99.90;;;;;;5057172;28;20044;-61
2022/09/30 06:40:48;;;;;;;73.05;8.57;;;7.60;99.90;;;;;;5065164;28;20049;-61
2022/09/30 06:43:15;;;;;;;111.25;9.93;;;7.60;99.90;;;;;;5062425;28;20503;-61
2022/09/30 06:45:41;;;;;;;79.75;10.10;;;7.50;99.90;;;;;;5062176;28;20052;-61
2022/09/30 06:48:08;;;;;;;58.50;10.85;;;7.50;99.90;;;;;;5063111;28;20052;-61
2022/09/30 06:50:38;;;;;;;79.90;11.95;;;7.50;99.90;;;;;;5064692;28;20056;-62
2022/09/30 06:53:06;;;;;;;104.28;13.70;;;7.60;99.90;;;;;;5065861;28;20041;-61
2022/09/30 06:55:35;;;;;;;83.25;14.15;;;7.70;99.90;;;;;;5070736;28;20044;-60
2022/09/30 06:58:01;;;;;;;74.22;13.65;;;7.70;99.90;;;;;;5058499;28;20051;-62
2022/09/30 07:00:32;;;;;;;52.17;14.02;;;7.80;99.90;;;;;;5067414;28;20055;-61
2022/09/30 07:02:59;;;;;;;77.50;15.05;;;7.90;99.90;;;;;;5065324;28;20040;-61
2022/09/30 07:05:25;;;;;;;131.57;18.42;;;8.00;99.90;;;;;;5046617;28;20406;-62
2022/09/30 07:07:58;;;;;;;77.90;16.27;;;8.20;99.90;;;;;;5063007;28;20143;-61
2022/09/30 07:10:24;;;;;;;67.47;14.73;;;8.30;99.90;;;;;;5066174;28;20380;-61
2022/09/30 07:12:54;;;;;;;90.03;16.35;;;8.40;99.90;;;;;;5051933;28;20052;-62
2022/09/30 07:15:23;;;;;;;63.45;14.45;;;8.50;99.90;;;;;;5031316;28;20045;-61
2022/09/30 07:17:55;;;;;;;42.90;14.07;;;8.70;99.90;;;;;;5065698;28;20055;-61
2022/09/30 07:20:22;;;;;;;55.35;15.10;;;8.80;99.90;;;;;;5066726;28;20049;-61
2022/09/30 07:22:48;;;;;;;41.83;14.50;;;9.00;99.90;;;;;;5065250;28;20045;-59
2022/09/30 07:25:14;;;;;;;56.85;14.48;;;9.10;99.90;;;;;;5062727;28;20052;-61
2022/09/30 07:27:41;;;;;;;65.25;15.80;;;9.10;99.90;;;;;;5066382;28;20396;-62
2022/09/30 07:30:08;;;;;;;91.60;16.05;;;9.10;99.90;;;;;;5064227;28;20064;-59
2022/09/30 07:32:35;;;;;;;92.88;17.42;;;9.10;99.90;;;;;;5065183;28;20044;-59
2022/09/30 07:35:03;;;;;;;89.57;16.55;;;9.20;99.90;;;;;;5062852;28;20049;-59
2022/09/30 07:37:34;;;;;;;65.88;15.88;;;9.20;99.90;;;;;;5059246;28;20040;-59
2022/09/30 07:40:04;;;;;;;53.15;14.45;;;9.40;99.90;;;;;;5052081;28;20071;-62
2022/09/30 07:42:30;;;;;;;62.53;14.55;;;9.50;99.90;;;;;;5060907;28;20079;-60
2022/09/30 07:44:57;;;;;;;51.95;14.30;;;9.60;99.90;;;;;;5055602;28;20092;-60
2022/09/30 07:47:23;;;;;;;65.97;15.82;;;9.60;99.90;;;;;;5055993;28;20049;-60
2022/09/30 07:49:49;;;;;;;76.43;15.82;;;9.70;99.90;;;;;;5052312;28;20155;-61
2022/09/30 07:52:15;;;;;;;44.53;14.70;;;9.80;99.90;;;;;;5056470;28;20052;-60
2022/09/30 07:54:42;;;;;;;78.00;17.17;;;10.00;99.90;;;;;;5053520;28;20045;-60
2022/09/30 07:57:09;;;;;;;29.73;13.57;;;10.10;99.90;;;;;;5062715;28;20056;-60
2022/09/30 07:59:38;;;;;;;41.40;15.32;;;10.20;99.90;;;;;;5054139;28;20080;-61
2022/09/30 08:02:06;;;;;;;47.08;15.48;;;10.30;99.90;;;;;;5058061;28;20133;-61
2022/09/30 08:04:33;;;;;;;46.72;16.90;;;10.50;99.90;;;;;;5056275;28;20059;-61
2022/09/30 08:07:01;;;;;;;33.53;16.15;;;10.60;99.90;;;;;;5071713;28;20209;-61
2022/09/30 08:09:28;;;;;;;20.50;16.52;;;10.80;99.90;;;;;;5042143;28;20056;-61
2022/09/30 08:11:55;;;;;;;30.48;16.23;;;10.90;99.90;;;;;;5064839;28;20053;-60
2022/09/30 08:14:24;;;;;;;38.83;17.88;;;10.90;99.90;;;;;;5064980;28;20063;-60
2022/09/30 08:16:55;;;;;;;37.28;18.55;;;11.10;99.90;;;;;;5077448;28;20048;-60
2022/09/30 08:19:23;;;;;;;20.50;18.40;;;11.20;99.90;;;;;;5041956;28;20060;-61
2022/09/30 08:21:52;;;;;;;20.55;18.42;;;11.40;99.90;;;;;;5063383;28;20109;-62
2022/09/30 08:24:19;;;;;;;20.83;18.92;;;11.60;99.90;;;;;;5061800;28;20084;-61
2022/09/30 08:26:45;;;;;;;19.90;18.20;;;11.70;99.90;;;;;;5061787;28;20049;-61
2022/09/30 08:29:13;;;;;;;20.10;18.10;;;11.90;99.90;;;;;;5070245;28;20105;-61
2022/09/30 08:31:40;;;;;;;23.05;20.75;;;12.10;99.90;;;;;;5065703;28;20044;-61
2022/09/30 08:34:07;;;;;;;22.67;20.65;;;12.20;99.90;;;;;;5056525;28;20105;-61
2022/09/30 08:36:33;;;;;;;22.52;20.42;;;12.30;99.90;;;;;;5072288;28;20130;-62
2022/09/30 08:38:59;;;;;;;21.63;19.58;;;12.30;99.90;;;;;;5065728;28;20095;-61
2022/09/30 08:41:25;;;;;;;21.77;19.83;;;12.30;99.90;;;;;;5063895;28;20045;-61
2022/09/30 08:44:23;;;;;;;22.23;20.20;;;12.40;99.90;;;;;;5028660;28;20130;-62
2022/09/30 08:47:08;;;;;;;22.45;20.38;;;12.40;99.90;;;;;;5061599;28;20048;-62
2022/09/30 08:50:05;;;;;;;20.65;18.73;;;12.50;99.90;;;;;;5059007;28;20059;-62
2022/09/30 08:52:53;;;;;;;19.33;17.52;;;12.70;99.90;;;;;;5060756;28;20131;-63
2022/09/30 08:55:34;;;;;;;21.15;17.48;;;12.80;99.90;;;;;;5038413;28;20056;-61
2022/09/30 08:58:02;;;;;;;17.75;15.02;;;12.90;99.90;;;;;;5028613;28;20052;-62
2022/09/30 09:00:33;;;;;;;16.40;14.82;;;12.90;99.90;;;;;;5062123;28;20055;-62
2022/09/30 09:03:04;;;;;;;16.25;14.57;;;13.10;99.90;;;;;;5059110;28;20052;-62
2022/09/30 09:06:00;;;;;;;13.60;12.35;;;13.20;99.90;;;;;;5047473;28;20617;-63
2022/09/30 09:09:05;;;;;;;14.00;12.60;;;13.30;99.90;;;;;;5044294;28;20529;-63
2022/09/30 09:11:41;;;;;;;13.52;12.25;;;13.40;99.90;;;;;;5066822;28;20114;-62
2022/09/30 09:14:35;;;;;;;15.57;12.10;;;13.50;99.90;;;;;;5054803;28;20096;-63
2022/09/30 09:17:20;;;;;;;13.13;11.85;;;13.70;99.90;;;;;;5052726;28;20572;-63
2022/09/30 09:20:01;;;;;;;10.75;9.63;;;13.70;99.90;;;;;;5057490;28;20085;-63
2022/09/30 09:22:30;;;;;;;11.07;10.00;;;13.90;99.90;;;;;;5052422;28;20056;-64
2022/09/30 09:24:57;;;;;;;11.77;10.48;;;13.90;99.90;;;;;;5064400;28;20044;-63
2022/09/30 09:27:44;;;;;;;9.98;9.07;;;14.00;99.90;;;;;;5052415;28;20048;-63
2022/09/30 09:30:18;;;;;;;8.00;7.22;;;14.10;99.90;;;;;;5061980;28;20521;-63
2022/09/30 09:32:51;;;;;;;8.45;7.05;;;14.10;99.90;;;;;;5059362;28;20052;-63
2022/09/30 09:36:01;;;;;;;7.43;6.72;;;14.30;99.90;;;;;;5028486;28;20057;-64
2022/09/30 09:38:34;;;;;;;8.45;6.35;;;14.40;99.90;;;;;;4965731;28;20054;-63
2022/09/30 09:41:32;;;;;;;6.10;5.30;;;14.40;99.90;;;;;;4954841;28;20498;-64
2022/09/30 09:44:28;;;;;;;5.90;5.30;;;14.40;99.90;;;;;;4960867;28;20577;-64
2022/09/30 09:47:13;;;;;;;6.07;4.82;;;14.50;99.90;;;;;;4956096;28;20157;-63
2022/09/30 09:49:54;;;;;;;6.25;5.43;;;14.60;99.90;;;;;;4957891;28;20122;-64
2022/09/30 09:52:50;;;;;;;6.10;5.40;;;14.60;99.90;;;;;;4954199;28;20093;-64
2022/09/30 09:55:20;;;;;;;6.07;5.57;;;14.60;99.90;;;;;;4964101;28;20063;-65
2022/09/30 09:57:46;;;;;;;5.70;5.10;;;14.60;99.90;;;;;;4960351;28;20051;-65
2022/09/30 10:03:27;;;;;;;;;;;14.70;99.90;;;;;;4904419;29;20051;-65
2022/09/30 10:06:09;;;;;;;6.63;5.75;;;14.80;99.90;;;;;;4901857;29;20095;-65
2022/09/30 10:08:38;;;;;;;6.53;5.93;;;14.80;99.90;;;;;;4909134;29;20063;-65
2022/09/30 10:11:15;;;;;;;8.02;6.03;;;14.80;99.90;;;;;;4904302;29;20138;-65
2022/09/30 10:13:45;;;;;;;7.53;5.82;;;14.80;99.90;;;;;;4897723;29;20139;-65
2022/09/30 10:16:36;;;;;;;8.18;5.70;;;14.80;99.90;;;;;;4961509;28;20144;-64
2022/09/30 10:19:15;;;;;;;7.88;5.57;;;14.80;99.90;;;;;;4954637;28;20059;-66
2022/09/30 10:21:41;;;;;;;9.60;5.72;;;14.90;99.90;;;;;;4963141;28;20057;-65
2022/09/30 10:24:29;;;;;;;5.68;5.00;;;15.00;99.90;;;;;;4968243;28;20059;-65
2022/09/30 10:26:55;;;;;;;5.32;4.32;;;15.00;99.90;;;;;;4962507;28;20163;-64
2022/09/30 10:29:31;;;;;;;6.63;5.88;;;15.10;99.90;;;;;;4969404;28;20417;-65
2022/09/30 10:32:01;;;;;;;6.75;5.70;;;15.20;99.90;;;;;;4961403;28;20099;-64
2022/09/30 10:34:31;;;;;;;10.43;6.13;;;15.10;99.90;;;;;;4963994;28;20070;-65
2022/09/30 10:37:05;;;;;;;5.88;5.38;;;15.20;99.90;;;;;;4987890;28;20057;-65
2022/09/30 10:39:40;;;;;;;6.03;5.30;;;15.30;99.90;;;;;;5043801;28;20491;-65
2022/09/30 10:42:24;;;;;;;6.40;4.80;;;15.30;99.90;;;;;;5020233;28;20048;-65
2022/09/30 10:44:56;;;;;;;;;;;15.40;99.90;;;;;;5044022;28;20058;-64
2022/09/30 10:47:27;;;;;;;5.93;5.32;;;15.30;99.90;;;;;;5044342;28;19927;-64
2022/09/30 10:50:10;;;;;;;5.30;4.82;;;15.30;99.90;;;;;;5043261;28;20144;-65
2022/09/30 10:52:43;;;;;;;6.30;4.55;;;15.30;99.90;;;;;;5052575;28;20523;-64
2022/09/30 10:55:19;;;;;;;5.05;4.60;;;15.30;99.90;;;;;;5021807;28;20053;-64
2022/09/30 10:57:46;;;;;;;4.97;4.22;;;15.40;99.90;;;;;;5040929;28;20048;-63
2022/09/30 11:00:21;;;;;;;7.90;4.75;;;15.60;99.90;;;;;;5048102;28;20803;-63
2022/09/30 11:03:04;;;;;;;5.32;4.80;;;15.50;99.90;;;;;;5036878;28;20106;-64
2022/09/30 11:05:38;;;;;;;6.13;5.53;;;15.50;99.90;;;;;;5039330;28;20690;-64
2022/09/30 11:08:43;;;;;;;5.93;4.90;;;15.50;99.90;;;;;;5043351;28;20060;-64
2022/09/30 11:11:19;;;;;;;5.85;4.35;;;15.50;99.90;;;;;;5041488;28;20564;-63
2022/09/30 11:14:09;;;;;;;3.40;2.88;;;15.40;99.90;;;;;;5061004;28;20059;-64
2022/09/30 11:16:44;;;;;;;4.60;2.90;;;15.20;99.90;;;;;;4993589;28;20144;-64
2022/09/30 11:19:47;;;;;;;6.53;3.60;;;15.20;99.90;;;;;;4989100;28;20513;-63
2022/09/30 11:22:25;;;;;;;3.80;2.72;;;15.30;99.90;;;;;;4976083;28;20134;-63
2022/09/30 11:24:53;;;;;;;4.05;2.72;;;15.30;99.90;;;;;;4992706;28;20061;-64
2022/09/30 11:28:01;;;;;;;3.80;3.22;;;15.40;99.90;;;;;;4992110;28;20101;-64
2022/09/30 11:30:51;;;;;;;3.05;2.75;;;15.50;99.90;;;;;;4984013;28;20046;-64
2022/09/30 11:33:49;;;;;;;5.82;3.20;;;15.70;99.90;;;;;;4976061;28;20057;-65
2022/09/30 11:36:27;;;;;;;4.93;3.42;;;15.90;99.90;;;;;;4934181;29;20094;-63
2022/09/30 11:39:25;;;;;;;8.57;2.97;;;16.10;99.90;;;;;;4927013;29;20055;-64
2022/09/30 11:42:04;;;;;;;3.63;2.85;;;16.20;99.90;;;;;;4935324;29;20593;-65
2022/09/30 11:44:34;;;;;;;5.75;2.78;;;16.30;99.90;;;;;;4930891;29;20074;-64
2022/09/30 11:47:23;;;;;;;6.22;3.35;;;16.20;99.90;;;;;;4934054;29;20121;-64
2022/09/30 11:50:21;;;;;;;6.30;3.38;;;16.00;99.90;;;;;;4930644;29;20131;-64
2022/09/30 11:53:02;;;;;;;5.47;2.60;;;16.00;99.90;;;;;;4939785;29;20062;-64
2022/09/30 11:55:47;;;;;;;3.65;2.60;;;16.10;99.90;;;;;;4956857;28;20047;-63
2022/09/30 11:58:20;;;;;;;4.40;3.00;;;16.20;99.90;;;;;;4961638;28;20046;-65
2022/09/30 12:00:53;;;;;;;2.53;2.20;;;16.40;99.90;;;;;;4963533;28;20066;-66
2022/09/30 12:03:35;;;;;;;3.97;2.30;;;16.50;99.90;;;;;;4973860;28;20113;-67
2022/09/30 12:06:12;;;;;;;4.35;2.85;;;16.50;99.90;;;;;;4973849;28;20121;-65
2022/09/30 12:08:49;;;;;;;5.18;2.40;;;16.50;99.90;;;;;;4964825;28;20063;-65
2022/09/30 12:11:41;;;;;;;5.32;2.70;;;16.30;99.90;;;;;;4967739;28;20249;-65
2022/09/30 12:14:21;;;;;;;3.65;2.40;;;16.20;99.90;;;;;;4982847;28;20528;-65
2022/09/30 12:16:49;;;;;;;9.45;3.00;;;16.30;99.90;;;;;;4977498;28;20077;-65
2022/09/30 12:19:19;;;;;;;7.53;3.72;;;16.50;99.90;;;;;;4991388;28;20521;-65
2022/09/30 12:21:56;;;;;;;5.55;2.95;;;16.50;99.90;;;;;;4989078;28;20089;-66
2022/09/30 12:24:36;;;;;;;4.82;3.10;;;16.50;99.90;;;;;;4990731;28;20085;-66
2022/09/30 12:27:04;;;;;;;4.65;3.75;;;16.50;99.90;;;;;;4983192;28;20530;-66
2022/09/30 12:32:29;;;;;;;7.75;3.67;;;16.10;99.90;;;;;;4987375;28;20049;-66
2022/09/30 12:35:18;;;;;;;5.65;4.10;;;16.00;99.90;;;;;;4987505;28;20528;-66
2022/09/30 12:38:14;;;;;;;7.47;4.07;;;16.00;99.90;;;;;;4972847;28;20062;-65
2022/09/30 12:40:53;;;;;;;5.68;4.75;;;16.20;99.90;;;;;;4992073;28;20082;-66
2022/09/30 12:43:41;;;;;;;6.75;4.15;;;16.40;99.90;;;;;;4982428;28;20057;-65
2022/09/30 12:46:13;;;;;;;6.93;3.78;;;16.20;99.90;;;;;;4989586;28;20080;-65
2022/09/30 12:48:42;;;;;;;5.80;3.55;;;16.00;99.90;;;;;;4964796;28;20050;-67
2022/09/30 12:51:10;;;;;;;4.63;3.88;;;16.00;99.90;;;;;;4987804;28;20061;-66
2022/09/30 12:53:40;;;;;;;7.07;4.10;;;16.10;99.90;;;;;;5041905;28;20041;-65
2022/09/30 12:56:12;;;;;;;4.88;3.50;;;16.30;99.90;;;;;;5025755;28;20503;-65
2022/09/30 12:58:52;;;;;;;4.95;3.60;;;16.30;99.90;;;;;;5046210;28;20041;-65
2022/09/30 13:01:25;;;;;;;4.10;3.70;;;16.00;99.90;;;;;;5039843;28;20830;-66
2022/09/30 13:04:15;;;;;;;5.60;3.88;;;16.00;99.90;;;;;;5025393;28;20125;-65
2022/09/30 13:06:44;;;;;;;10.02;4.05;;;15.90;99.90;;;;;;5006478;28;20065;-65
2022/09/30 13:09:15;;;;;;;4.22;3.83;;;15.90;99.90;;;;;;5044293;28;20049;-67
2022/09/30 13:12:04;;;;;;;4.85;3.80;;;16.00;99.90;;;;;;5026010;28;20454;-65
2022/09/30 13:14:45;;;;;;;5.97;4.40;;;16.20;99.90;;;;;;5057256;28;20053;-66
2022/09/30 13:17:17;;;;;;;6.63;5.07;;;16.10;99.90;;;;;;5044049;28;20522;-65
2022/09/30 13:19:50;;;;;;;5.43;4.60;;;16.20;99.90;;;;;;5048772;28;20037;-66
2022/09/30 13:22:19;;;;;;;8.27;4.63;;;16.20;99.90;;;;;;5044387;28;20453;-65
2022/09/30 13:24:57;;;;;;;10.48;6.00;;;16.30;99.90;;;;;;5045257;28;20130;-66
2022/09/30 13:27:40;;;;;;;8.45;5.40;;;16.20;99.90;;;;;;5065218;28;20064;-65